SIA438 WSSS-VRMM
Flight info
| Callsign | SIA438 |
|---|---|
| Flight time | N/A |
| Altitude | 40000 |
| Route | MIBEL1B MIBEL L762 MOZES M300 OKABU P756 TENIV TENIV1B |
| Aircraft | A359/H-SDE2E3GHIJ3J4J5LM1ORWXY/LB1D1 |
Departure
| Time | 2026-05-05 02:05 |
|---|---|
| Airport | Singapore Changi Airport (WSSS) |
Arrival
| Time | N/A |
|---|---|
| Airport | Velana International Airport (VRMM) |
| Time | Latitude | Longitude | Altitude | Speed | Heading |
|---|---|---|---|---|---|
| 2026-05-05 01:39 | 1.35084 | 103.99035 | 39 ft | 0 kts | 82° |
| 2026-05-05 01:49 | 1.35082 | 103.99023 | 41 ft | 2 kts | 83° |
| 2026-05-05 01:50 | 1.35081 | 103.99011 | 41 ft | 2 kts | 85° |
| 2026-05-05 01:50 | 1.35080 | 103.98999 | 42 ft | 1 kts | 82° |
| 2026-05-05 01:50 | 1.35078 | 103.98988 | 42 ft | 1 kts | 89° |
| 2026-05-05 01:50 | 1.35078 | 103.98975 | 42 ft | 2 kts | 102° |
| 2026-05-05 01:51 | 1.35082 | 103.98964 | 40 ft | 2 kts | 122° |
| 2026-05-05 01:51 | 1.35090 | 103.98955 | 36 ft | 2 kts | 160° |
| 2026-05-05 01:51 | 1.35102 | 103.98953 | 40 ft | 1 kts | 170° |
| 2026-05-05 01:51 | 1.35114 | 103.98951 | 40 ft | 2 kts | 173° |
| 2026-05-05 01:52 | 1.35122 | 103.98950 | 41 ft | 0 kts | 174° |
| 2026-05-05 01:52 | 1.35123 | 103.98950 | 40 ft | 0 kts | 175° |
| 2026-05-05 01:52 | 1.35122 | 103.98950 | 38 ft | 0 kts | 175° |
| 2026-05-05 01:56 | 1.35105 | 103.98952 | 39 ft | 6 kts | 174° |
| 2026-05-05 01:56 | 1.35050 | 103.98958 | 39 ft | 10 kts | 173° |
| 2026-05-05 01:56 | 1.34965 | 103.98971 | 39 ft | 14 kts | 168° |
| 2026-05-05 01:57 | 1.34878 | 103.99017 | 39 ft | 12 kts | 132° |
| 2026-05-05 01:57 | 1.34859 | 103.99047 | 39 ft | 0 kts | 116° |
| 2026-05-05 01:57 | 1.34858 | 103.99051 | 39 ft | 2 kts | 115° |
| 2026-05-05 01:57 | 1.34847 | 103.99076 | 39 ft | 6 kts | 114° |
| 2026-05-05 01:58 | 1.34848 | 103.99121 | 39 ft | 8 kts | 59° |
| 2026-05-05 01:58 | 1.34904 | 103.99154 | 39 ft | 11 kts | 23° |
| 2026-05-05 01:58 | 1.34991 | 103.99191 | 39 ft | 15 kts | 22° |
| 2026-05-05 01:58 | 1.35102 | 103.99238 | 38 ft | 19 kts | 23° |
| 2026-05-05 01:59 | 1.35232 | 103.99293 | 39 ft | 22 kts | 23° |
| 2026-05-05 01:59 | 1.35380 | 103.99355 | 39 ft | 24 kts | 22° |
| 2026-05-05 01:59 | 1.35543 | 103.99421 | 39 ft | 27 kts | 22° |
| 2026-05-05 01:59 | 1.35722 | 103.99497 | 39 ft | 29 kts | 23° |
| 2026-05-05 02:00 | 1.35916 | 103.99579 | 38 ft | 31 kts | 23° |
| 2026-05-05 02:00 | 1.36115 | 103.99663 | 38 ft | 25 kts | 22° |
| 2026-05-05 02:00 | 1.36204 | 103.99700 | 38 ft | 10 kts | 25° |
| 2026-05-05 02:00 | 1.36236 | 103.99752 | 38 ft | 5 kts | 93° |
| 2026-05-05 02:01 | 1.36235 | 103.99754 | 38 ft | 0 kts | 99° |
| 2026-05-05 02:01 | 1.36234 | 103.99759 | 38 ft | 2 kts | 104° |
| 2026-05-05 02:02 | 1.36223 | 103.99793 | 37 ft | 8 kts | 109° |
| 2026-05-05 02:02 | 1.36198 | 103.99845 | 37 ft | 8 kts | 121° |
| 2026-05-05 02:02 | 1.36143 | 103.99871 | 37 ft | 11 kts | 184° |
| 2026-05-05 02:02 | 1.36113 | 103.99863 | 36 ft | 0 kts | 200° |
| 2026-05-05 02:04 | 1.36077 | 103.99849 | 36 ft | 29 kts | 202° |
| 2026-05-05 02:04 | 1.35622 | 103.99656 | 40 ft | 117 kts | 203° |
| 2026-05-05 02:04 | 1.34595 | 103.99223 | 105 ft | 196 kts | 203° |
| 2026-05-05 02:05 | 1.33317 | 103.98684 | 1109 ft | 197 kts | 203° |
| 2026-05-05 02:05 | 1.32013 | 103.98133 | 1988 ft | 209 kts | 203° |
| 2026-05-05 02:05 | 1.30664 | 103.97563 | 2245 ft | 214 kts | 203° |
| 2026-05-05 02:05 | 1.29260 | 103.96967 | 2376 ft | 225 kts | 203° |
| 2026-05-05 02:06 | 1.27777 | 103.96339 | 2486 ft | 238 kts | 203° |
| 2026-05-05 02:06 | 1.26231 | 103.95696 | 2759 ft | 242 kts | 201° |
| 2026-05-05 02:06 | 1.24585 | 103.95352 | 3073 ft | 245 kts | 179° |
| 2026-05-05 02:06 | 1.22971 | 103.95844 | 3367 ft | 247 kts | 146° |
| 2026-05-05 02:07 | 1.21841 | 103.97119 | 3681 ft | 248 kts | 117° |
| 2026-05-05 02:07 | 1.21135 | 103.98693 | 4014 ft | 249 kts | 112° |
| 2026-05-05 02:07 | 1.20491 | 104.00275 | 4322 ft | 250 kts | 112° |
| 2026-05-05 02:07 | 1.19832 | 104.01915 | 4664 ft | 251 kts | 109° |
| 2026-05-05 02:08 | 1.19575 | 104.03610 | 4918 ft | 253 kts | 85° |
| 2026-05-05 02:08 | 1.20152 | 104.05252 | 5159 ft | 255 kts | 55° |
| 2026-05-05 02:08 | 1.21498 | 104.06426 | 5252 ft | 263 kts | 27° |
| 2026-05-05 02:08 | 1.23204 | 104.07169 | 5372 ft | 272 kts | 20° |
| 2026-05-05 02:09 | 1.25078 | 104.07537 | 5789 ft | 278 kts | 0° |
| 2026-05-05 02:09 | 1.26978 | 104.07206 | 6427 ft | 278 kts | 342° |
| 2026-05-05 02:09 | 1.28824 | 104.06585 | 6958 ft | 282 kts | 340° |
| 2026-05-05 02:09 | 1.30684 | 104.05929 | 7472 ft | 285 kts | 340° |
| 2026-05-05 02:10 | 1.32566 | 104.05275 | 8025 ft | 288 kts | 341° |
| 2026-05-05 02:10 | 1.34467 | 104.04624 | 8582 ft | 290 kts | 341° |
| 2026-05-05 02:10 | 1.36389 | 104.03971 | 9134 ft | 293 kts | 341° |
| 2026-05-05 02:10 | 1.38331 | 104.03313 | 9696 ft | 296 kts | 341° |
| 2026-05-05 02:11 | 1.40294 | 104.02651 | 10179 ft | 301 kts | 341° |
| 2026-05-05 02:11 | 1.42321 | 104.01970 | 10413 ft | 314 kts | 342° |
| 2026-05-05 02:11 | 1.44446 | 104.01280 | 10615 ft | 328 kts | 342° |
| 2026-05-05 02:11 | 1.46665 | 104.00565 | 10863 ft | 341 kts | 342° |
| 2026-05-05 02:12 | 1.48961 | 103.99823 | 11052 ft | 353 kts | 342° |
| 2026-05-05 02:12 | 1.53771 | 103.98269 | 11443 ft | 372 kts | 342° |
| 2026-05-05 02:12 | 1.56249 | 103.97468 | 11769 ft | 376 kts | 342° |
| 2026-05-05 02:13 | 1.58749 | 103.96658 | 12140 ft | 379 kts | 342° |
| 2026-05-05 02:13 | 1.61263 | 103.95844 | 12514 ft | 381 kts | 342° |
| 2026-05-05 02:13 | 1.63796 | 103.95024 | 12874 ft | 384 kts | 343° |
| 2026-05-05 02:13 | 1.66345 | 103.94199 | 13231 ft | 386 kts | 343° |
| 2026-05-05 02:14 | 1.68908 | 103.93369 | 13596 ft | 388 kts | 343° |
| 2026-05-05 02:14 | 1.71449 | 103.92438 | 13911 ft | 391 kts | 336° |
| 2026-05-05 02:14 | 1.73725 | 103.90942 | 14215 ft | 395 kts | 318° |
| 2026-05-05 02:14 | 1.75438 | 103.88791 | 14529 ft | 398 kts | 299° |
| 2026-05-05 02:15 | 1.76400 | 103.86196 | 14845 ft | 401 kts | 282° |
| 2026-05-05 02:15 | 1.76864 | 103.83441 | 15169 ft | 403 kts | 278° |
| 2026-05-05 02:15 | 1.77253 | 103.80656 | 15467 ft | 406 kts | 278° |
| 2026-05-05 02:15 | 1.77650 | 103.77858 | 15792 ft | 408 kts | 278° |
| 2026-05-05 02:16 | 1.78058 | 103.75049 | 16107 ft | 410 kts | 278° |
| 2026-05-05 02:16 | 1.78475 | 103.72221 | 16419 ft | 412 kts | 278° |
| 2026-05-05 02:16 | 1.78898 | 103.69381 | 16733 ft | 414 kts | 278° |
| 2026-05-05 02:16 | 1.79319 | 103.66526 | 17043 ft | 416 kts | 278° |
| 2026-05-05 02:17 | 1.79729 | 103.63654 | 17354 ft | 419 kts | 278° |
| 2026-05-05 02:17 | 1.80140 | 103.60767 | 17654 ft | 421 kts | 278° |
| 2026-05-05 02:17 | 1.80555 | 103.57867 | 17948 ft | 423 kts | 278° |
| 2026-05-05 02:17 | 1.80957 | 103.55075 | 18244 ft | 425 kts | 278° |
| 2026-05-05 02:18 | 1.81372 | 103.52183 | 18491 ft | 427 kts | 278° |
| 2026-05-05 02:18 | 1.81801 | 103.49201 | 18759 ft | 429 kts | 278° |
| 2026-05-05 02:18 | 1.82221 | 103.46284 | 19028 ft | 430 kts | 278° |
| 2026-05-05 02:18 | 1.82648 | 103.43319 | 19279 ft | 432 kts | 278° |
| 2026-05-05 02:19 | 1.83077 | 103.40340 | 19533 ft | 434 kts | 278° |
| 2026-05-05 02:19 | 1.83507 | 103.37349 | 19787 ft | 436 kts | 278° |
| 2026-05-05 02:19 | 1.83940 | 103.34345 | 20048 ft | 437 kts | 278° |
| 2026-05-05 02:19 | 1.84381 | 103.31329 | 20295 ft | 439 kts | 279° |
| 2026-05-05 02:20 | 1.85077 | 103.28357 | 20545 ft | 440 kts | 289° |
| 2026-05-05 02:20 | 1.86262 | 103.25536 | 20801 ft | 441 kts | 296° |
| 2026-05-05 02:20 | 1.87614 | 103.22777 | 21041 ft | 443 kts | 297° |
| 2026-05-05 02:20 | 1.88986 | 103.20012 | 21289 ft | 445 kts | 297° |
| 2026-05-05 02:21 | 1.90359 | 103.17235 | 21534 ft | 446 kts | 297° |
| 2026-05-05 02:21 | 1.91732 | 103.14449 | 21773 ft | 448 kts | 297° |
| 2026-05-05 02:21 | 1.93109 | 103.11649 | 22017 ft | 450 kts | 297° |
| 2026-05-05 02:21 | 1.94489 | 103.08839 | 22246 ft | 451 kts | 297° |
| 2026-05-05 02:22 | 1.95873 | 103.06017 | 22471 ft | 453 kts | 297° |
| 2026-05-05 02:22 | 1.96792 | 103.04144 | 22633 ft | 454 kts | 297° |
| 2026-05-05 02:22 | 1.98182 | 103.01309 | 22850 ft | 455 kts | 297° |
| 2026-05-05 02:22 | 1.99577 | 102.98463 | 23083 ft | 457 kts | 297° |
| 2026-05-05 02:23 | 2.00978 | 102.95607 | 23296 ft | 458 kts | 297° |
| 2026-05-05 02:23 | 2.02384 | 102.92739 | 23515 ft | 460 kts | 297° |
| 2026-05-05 02:23 | 2.03749 | 102.89842 | 23683 ft | 462 kts | 293° |
| 2026-05-05 02:23 | 2.04751 | 102.86787 | 23874 ft | 464 kts | 283° |
| 2026-05-05 02:24 | 2.05359 | 102.83612 | 24066 ft | 465 kts | 279° |
| 2026-05-05 02:24 | 2.05827 | 102.80410 | 24236 ft | 467 kts | 278° |
| 2026-05-05 02:24 | 2.06231 | 102.77192 | 24428 ft | 468 kts | 277° |
| 2026-05-05 02:24 | 2.06617 | 102.73958 | 24606 ft | 469 kts | 277° |
| 2026-05-05 02:25 | 2.07007 | 102.70713 | 24786 ft | 470 kts | 277° |
| 2026-05-05 02:25 | 2.07410 | 102.67462 | 24971 ft | 472 kts | 277° |
| 2026-05-05 02:25 | 2.07826 | 102.64209 | 25157 ft | 473 kts | 277° |
| 2026-05-05 02:25 | 2.08251 | 102.60947 | 25340 ft | 474 kts | 277° |
| 2026-05-05 02:26 | 2.08682 | 102.57682 | 25521 ft | 475 kts | 277° |
| 2026-05-05 02:26 | 2.09117 | 102.54404 | 25699 ft | 476 kts | 277° |
| 2026-05-05 02:26 | 2.09554 | 102.51118 | 25888 ft | 477 kts | 277° |
| 2026-05-05 02:26 | 2.09991 | 102.47826 | 26078 ft | 478 kts | 277° |
| 2026-05-05 02:27 | 2.10422 | 102.44568 | 26267 ft | 479 kts | 277° |
| 2026-05-05 02:27 | 2.10860 | 102.41262 | 26456 ft | 481 kts | 277° |
| 2026-05-05 02:27 | 2.11298 | 102.37945 | 26646 ft | 482 kts | 277° |
| 2026-05-05 02:27 | 2.11738 | 102.34618 | 26827 ft | 483 kts | 277° |
| 2026-05-05 02:28 | 2.12178 | 102.31285 | 27021 ft | 484 kts | 277° |
| 2026-05-05 02:28 | 2.12620 | 102.27941 | 27212 ft | 486 kts | 277° |
| 2026-05-05 02:28 | 2.13063 | 102.24587 | 27408 ft | 487 kts | 277° |
| 2026-05-05 02:28 | 2.13506 | 102.21229 | 27606 ft | 488 kts | 277° |
| 2026-05-05 02:29 | 2.13951 | 102.17858 | 27808 ft | 490 kts | 277° |
| 2026-05-05 02:29 | 2.14397 | 102.14480 | 28005 ft | 491 kts | 277° |
| 2026-05-05 02:29 | 2.14845 | 102.11086 | 28193 ft | 493 kts | 277° |
| 2026-05-05 02:29 | 2.15293 | 102.07688 | 28392 ft | 494 kts | 277° |
| 2026-05-05 02:30 | 2.15742 | 102.04283 | 28603 ft | 495 kts | 277° |
| 2026-05-05 02:30 | 2.16193 | 102.00865 | 28789 ft | 497 kts | 277° |
| 2026-05-05 02:30 | 2.16645 | 101.97437 | 28993 ft | 498 kts | 277° |
| 2026-05-05 02:30 | 2.17098 | 101.94002 | 29189 ft | 499 kts | 277° |
| 2026-05-05 02:31 | 2.17552 | 101.90560 | 29381 ft | 501 kts | 277° |
| 2026-05-05 02:31 | 2.18008 | 101.87104 | 29569 ft | 502 kts | 277° |
| 2026-05-05 02:31 | 2.18464 | 101.83638 | 29766 ft | 503 kts | 277° |
| 2026-05-05 02:31 | 2.18922 | 101.80169 | 29956 ft | 505 kts | 277° |
| 2026-05-05 02:32 | 2.19380 | 101.76689 | 30126 ft | 506 kts | 277° |
| 2026-05-05 02:32 | 2.19840 | 101.73196 | 30299 ft | 507 kts | 277° |
| 2026-05-05 02:32 | 2.20301 | 101.69700 | 30466 ft | 508 kts | 277° |
| 2026-05-05 02:32 | 2.20763 | 101.66191 | 30644 ft | 509 kts | 277° |
| 2026-05-05 02:33 | 2.21225 | 101.62678 | 30821 ft | 510 kts | 277° |
| 2026-05-05 02:33 | 2.21688 | 101.59162 | 30999 ft | 511 kts | 277° |
| 2026-05-05 02:33 | 2.22153 | 101.55633 | 31170 ft | 512 kts | 277° |
| 2026-05-05 02:33 | 2.22618 | 101.52094 | 31342 ft | 513 kts | 277° |
| 2026-05-05 02:34 | 2.23084 | 101.48555 | 31510 ft | 515 kts | 277° |
| 2026-05-05 02:34 | 2.23551 | 101.45000 | 31674 ft | 516 kts | 277° |
| 2026-05-05 02:34 | 2.24019 | 101.41445 | 31820 ft | 517 kts | 277° |
| 2026-05-05 02:34 | 2.24488 | 101.37880 | 31971 ft | 518 kts | 277° |
| 2026-05-05 02:35 | 2.24957 | 101.34309 | 32121 ft | 519 kts | 277° |
| 2026-05-05 02:35 | 2.25428 | 101.30726 | 32264 ft | 520 kts | 277° |
| 2026-05-05 02:35 | 2.25899 | 101.27142 | 32404 ft | 521 kts | 277° |
| 2026-05-05 02:35 | 2.26370 | 101.23554 | 32617 ft | 520 kts | 277° |
| 2026-05-05 02:36 | 2.26841 | 101.19970 | 32851 ft | 519 kts | 277° |
| 2026-05-05 02:36 | 2.27311 | 101.16392 | 33078 ft | 519 kts | 277° |
| 2026-05-05 02:36 | 2.27780 | 101.12819 | 33307 ft | 518 kts | 277° |
| 2026-05-05 02:36 | 2.28248 | 101.09254 | 33544 ft | 517 kts | 277° |
| 2026-05-05 02:37 | 2.28716 | 101.05685 | 33785 ft | 517 kts | 278° |
| 2026-05-05 02:37 | 2.29182 | 101.02131 | 34016 ft | 516 kts | 277° |
| 2026-05-05 02:37 | 2.29643 | 100.98618 | 34236 ft | 515 kts | 278° |
| 2026-05-05 02:37 | 2.30109 | 100.95068 | 34477 ft | 515 kts | 278° |
| 2026-05-05 02:38 | 2.30574 | 100.91524 | 34727 ft | 514 kts | 278° |
| 2026-05-05 02:38 | 2.31037 | 100.87988 | 34981 ft | 513 kts | 278° |
| 2026-05-05 02:38 | 2.31507 | 100.84407 | 35264 ft | 511 kts | 278° |
| 2026-05-05 02:38 | 2.31968 | 100.80889 | 35546 ft | 510 kts | 278° |
| 2026-05-05 02:39 | 2.32428 | 100.77372 | 35823 ft | 509 kts | 278° |
| 2026-05-05 02:39 | 2.32888 | 100.73865 | 36094 ft | 509 kts | 278° |
| 2026-05-05 02:39 | 2.33347 | 100.70361 | 36359 ft | 508 kts | 278° |
| 2026-05-05 02:39 | 2.33805 | 100.66860 | 36621 ft | 508 kts | 278° |
| 2026-05-05 02:40 | 2.34257 | 100.63407 | 36882 ft | 507 kts | 278° |
| 2026-05-05 02:40 | 2.34714 | 100.59917 | 37146 ft | 507 kts | 278° |
| 2026-05-05 02:40 | 2.35245 | 100.56390 | 37392 ft | 506 kts | 282° |
| 2026-05-05 02:40 | 2.36180 | 100.53010 | 37639 ft | 504 kts | 291° |
| 2026-05-05 02:41 | 2.37593 | 100.49859 | 37897 ft | 502 kts | 300° |
| 2026-05-05 02:41 | 2.39277 | 100.46802 | 38143 ft | 502 kts | 301° |
| 2026-05-05 02:41 | 2.41037 | 100.43797 | 38414 ft | 501 kts | 302° |
| 2026-05-05 02:41 | 2.42833 | 100.40817 | 38667 ft | 500 kts | 302° |
| 2026-05-05 02:42 | 2.44637 | 100.37849 | 38880 ft | 499 kts | 303° |
| 2026-05-05 02:42 | 2.46438 | 100.34880 | 39104 ft | 498 kts | 302° |
| 2026-05-05 02:42 | 2.48228 | 100.31914 | 39319 ft | 498 kts | 302° |
| 2026-05-05 02:42 | 2.50009 | 100.28950 | 39543 ft | 497 kts | 302° |
| 2026-05-05 02:43 | 2.51784 | 100.25984 | 39734 ft | 497 kts | 302° |
| 2026-05-05 02:43 | 2.53555 | 100.23019 | 39893 ft | 497 kts | 302° |
| 2026-05-05 02:43 | 2.55326 | 100.20051 | 39913 ft | 496 kts | 302° |
| 2026-05-05 02:44 | 2.58856 | 100.14132 | 39915 ft | 495 kts | 302° |
| 2026-05-05 02:44 | 2.62387 | 100.08213 | 39914 ft | 496 kts | 302° |
| 2026-05-05 02:45 | 2.65919 | 100.02293 | 39917 ft | 496 kts | 302° |
| 2026-05-05 02:45 | 2.69448 | 99.96377 | 39920 ft | 495 kts | 302° |
| 2026-05-05 02:46 | 2.72309 | 99.90103 | 39922 ft | 497 kts | 291° |
| 2026-05-05 02:46 | 2.74479 | 99.83534 | 39924 ft | 498 kts | 289° |
| 2026-05-05 02:47 | 2.76539 | 99.76922 | 39921 ft | 498 kts | 289° |
| 2026-05-05 02:47 | 2.78586 | 99.70356 | 39922 ft | 497 kts | 289° |
| 2026-05-05 02:48 | 2.80659 | 99.63759 | 39925 ft | 497 kts | 289° |
| 2026-05-05 02:48 | 2.82741 | 99.57164 | 39924 ft | 497 kts | 289° |
| 2026-05-05 02:49 | 2.84819 | 99.50581 | 39927 ft | 496 kts | 289° |
| 2026-05-05 02:49 | 2.86895 | 99.43997 | 39932 ft | 496 kts | 289° |
| 2026-05-05 02:50 | 2.88969 | 99.37423 | 39932 ft | 495 kts | 289° |
| 2026-05-05 02:50 | 2.91042 | 99.30852 | 39938 ft | 495 kts | 289° |
| 2026-05-05 02:51 | 2.93109 | 99.24290 | 39937 ft | 495 kts | 289° |
| 2026-05-05 02:51 | 2.95164 | 99.17721 | 39939 ft | 495 kts | 289° |
| 2026-05-05 02:52 | 2.97215 | 99.11155 | 39940 ft | 495 kts | 289° |
| 2026-05-05 02:52 | 2.99268 | 99.04586 | 39943 ft | 495 kts | 289° |
| 2026-05-05 02:53 | 3.01325 | 98.98002 | 39947 ft | 495 kts | 289° |
| 2026-05-05 02:53 | 3.03383 | 98.91425 | 39947 ft | 496 kts | 289° |
| 2026-05-05 02:54 | 3.05445 | 98.84832 | 39951 ft | 496 kts | 289° |
| 2026-05-05 02:54 | 3.07505 | 98.78243 | 39954 ft | 497 kts | 289° |
| 2026-05-05 02:55 | 3.09569 | 98.71641 | 39957 ft | 497 kts | 288° |
| 2026-05-05 02:55 | 3.11632 | 98.65036 | 39959 ft | 497 kts | 288° |
| 2026-05-05 02:56 | 3.13696 | 98.58429 | 39962 ft | 498 kts | 288° |
| 2026-05-05 02:56 | 3.15761 | 98.51815 | 39961 ft | 498 kts | 288° |
| 2026-05-05 02:57 | 3.17827 | 98.45196 | 39963 ft | 499 kts | 288° |
| 2026-05-05 02:57 | 3.19880 | 98.38619 | 39959 ft | 499 kts | 288° |
| 2026-05-05 02:58 | 3.21949 | 98.31988 | 40162 ft | 500 kts | 288° |
| 2026-05-05 02:58 | 3.22984 | 98.28672 | 40380 ft | 498 kts | 288° |
| 2026-05-05 02:58 | 3.24015 | 98.25365 | 40588 ft | 498 kts | 288° |
| 2026-05-05 02:58 | 3.25046 | 98.22058 | 40770 ft | 497 kts | 288° |
| 2026-05-05 02:59 | 3.26077 | 98.18755 | 40964 ft | 497 kts | 288° |
| 2026-05-05 02:59 | 3.27105 | 98.15458 | 41145 ft | 496 kts | 288° |
| 2026-05-05 02:59 | 3.28131 | 98.12167 | 41333 ft | 496 kts | 288° |
| 2026-05-05 02:59 | 3.29159 | 98.08869 | 41496 ft | 496 kts | 288° |
| 2026-05-05 03:00 | 3.30184 | 98.05579 | 41661 ft | 496 kts | 288° |
| 2026-05-05 03:00 | 3.31212 | 98.02282 | 41810 ft | 496 kts | 288° |
| 2026-05-05 03:00 | 3.32237 | 97.98991 | 41946 ft | 496 kts | 288° |
| 2026-05-05 03:01 | 3.34289 | 97.92406 | 41966 ft | 495 kts | 288° |
| 2026-05-05 03:01 | 3.36339 | 97.85827 | 41972 ft | 495 kts | 288° |
| 2026-05-05 03:02 | 3.38389 | 97.79243 | 41977 ft | 496 kts | 288° |
| 2026-05-05 03:02 | 3.40439 | 97.72657 | 41992 ft | 496 kts | 288° |
| 2026-05-05 03:03 | 3.42488 | 97.66074 | 41998 ft | 495 kts | 288° |
| 2026-05-05 03:03 | 3.43855 | 97.59325 | 42001 ft | 497 kts | 273° |
| 2026-05-05 03:04 | 3.43720 | 97.52407 | 42003 ft | 498 kts | 267° |
| 2026-05-05 03:04 | 3.43272 | 97.45494 | 41996 ft | 498 kts | 266° |
| 2026-05-05 03:05 | 3.42788 | 97.38583 | 41988 ft | 498 kts | 266° |
| 2026-05-05 03:05 | 3.42329 | 97.31676 | 41982 ft | 497 kts | 266° |
| 2026-05-05 03:06 | 3.41887 | 97.24769 | 41977 ft | 497 kts | 267° |
| 2026-05-05 03:06 | 3.41451 | 97.17867 | 41962 ft | 497 kts | 267° |
| 2026-05-05 03:07 | 3.41012 | 97.10957 | 41954 ft | 497 kts | 267° |
| 2026-05-05 03:07 | 3.40572 | 97.04050 | 41935 ft | 497 kts | 267° |
| 2026-05-05 03:08 | 3.40132 | 96.97141 | 41930 ft | 497 kts | 267° |
| 2026-05-05 03:08 | 3.39691 | 96.90231 | 41927 ft | 498 kts | 267° |
| 2026-05-05 03:09 | 3.39324 | 96.84486 | 41920 ft | 498 kts | 267° |
| 2026-05-05 03:09 | 3.38881 | 96.77571 | 41906 ft | 498 kts | 267° |
| 2026-05-05 03:10 | 3.38438 | 96.70651 | 41913 ft | 498 kts | 267° |
| 2026-05-05 03:10 | 3.37994 | 96.63732 | 41906 ft | 498 kts | 267° |
| 2026-05-05 03:11 | 3.37550 | 96.56813 | 41902 ft | 498 kts | 267° |
| 2026-05-05 03:11 | 3.37105 | 96.49891 | 41907 ft | 498 kts | 267° |
| 2026-05-05 03:12 | 3.36667 | 96.42972 | 41899 ft | 498 kts | 267° |
| 2026-05-05 03:12 | 3.36233 | 96.36057 | 41910 ft | 498 kts | 267° |
| 2026-05-05 03:13 | 3.35798 | 96.29138 | 41911 ft | 498 kts | 267° |
| 2026-05-05 03:13 | 3.35363 | 96.22225 | 41910 ft | 498 kts | 267° |
| 2026-05-05 03:14 | 3.34927 | 96.15310 | 41907 ft | 498 kts | 267° |
| 2026-05-05 03:14 | 3.34490 | 96.08401 | 41911 ft | 497 kts | 267° |
| 2026-05-05 03:15 | 3.34054 | 96.01492 | 41905 ft | 497 kts | 267° |
| 2026-05-05 03:15 | 3.33617 | 95.94585 | 41905 ft | 497 kts | 267° |
| 2026-05-05 03:16 | 3.33179 | 95.87674 | 41916 ft | 497 kts | 267° |
| 2026-05-05 03:16 | 3.32741 | 95.80768 | 41900 ft | 498 kts | 267° |
| 2026-05-05 03:17 | 3.32305 | 95.73901 | 41900 ft | 498 kts | 267° |
| 2026-05-05 03:17 | 3.31866 | 95.66989 | 41900 ft | 498 kts | 267° |
| 2026-05-05 03:18 | 3.31426 | 95.60070 | 41896 ft | 498 kts | 267° |
| 2026-05-05 03:18 | 3.30985 | 95.53146 | 41905 ft | 499 kts | 267° |
| 2026-05-05 03:19 | 3.30322 | 95.42753 | 41910 ft | 499 kts | 267° |
| 2026-05-05 03:19 | 3.29879 | 95.35821 | 41904 ft | 499 kts | 267° |
| 2026-05-05 03:20 | 3.29436 | 95.28887 | 41911 ft | 499 kts | 267° |
| 2026-05-05 03:20 | 3.28992 | 95.21947 | 41909 ft | 500 kts | 267° |
| 2026-05-05 03:21 | 3.28547 | 95.15007 | 41898 ft | 500 kts | 267° |
| 2026-05-05 03:21 | 3.28102 | 95.08062 | 41896 ft | 500 kts | 267° |
| 2026-05-05 03:22 | 3.27656 | 95.01115 | 41905 ft | 500 kts | 267° |
| 2026-05-05 03:22 | 3.27209 | 94.94161 | 41908 ft | 500 kts | 267° |
| 2026-05-05 03:23 | 3.26761 | 94.87212 | 41902 ft | 500 kts | 267° |
| 2026-05-05 03:23 | 3.26292 | 94.80263 | 41903 ft | 501 kts | 266° |
| 2026-05-05 03:24 | 3.25765 | 94.73365 | 41912 ft | 501 kts | 266° |
| 2026-05-05 03:24 | 3.25229 | 94.66422 | 41905 ft | 501 kts | 266° |
| 2026-05-05 03:25 | 3.24700 | 94.59472 | 41905 ft | 501 kts | 266° |
| 2026-05-05 03:25 | 3.24176 | 94.52522 | 41903 ft | 501 kts | 266° |
| 2026-05-05 03:26 | 3.23653 | 94.45575 | 41902 ft | 501 kts | 266° |
| 2026-05-05 03:26 | 3.23129 | 94.38630 | 41916 ft | 501 kts | 267° |
| 2026-05-05 03:27 | 3.22605 | 94.31684 | 41903 ft | 501 kts | 266° |
| 2026-05-05 03:27 | 3.22079 | 94.24736 | 41912 ft | 501 kts | 267° |
| 2026-05-05 03:28 | 3.21554 | 94.17794 | 41908 ft | 501 kts | 267° |
| 2026-05-05 03:28 | 3.21028 | 94.10847 | 41915 ft | 501 kts | 267° |
| 2026-05-05 03:29 | 3.20501 | 94.03900 | 41910 ft | 501 kts | 267° |
| 2026-05-05 03:29 | 3.19974 | 93.96958 | 41908 ft | 500 kts | 267° |
| 2026-05-05 03:30 | 3.19446 | 93.90013 | 41904 ft | 500 kts | 267° |
| 2026-05-05 03:30 | 3.18919 | 93.83071 | 41905 ft | 500 kts | 267° |
| 2026-05-05 03:31 | 3.18390 | 93.76124 | 41915 ft | 500 kts | 267° |
| 2026-05-05 03:31 | 3.17861 | 93.69184 | 41915 ft | 500 kts | 267° |
| 2026-05-05 03:32 | 3.17336 | 93.62289 | 41915 ft | 500 kts | 267° |
| 2026-05-05 03:32 | 3.16806 | 93.55344 | 41909 ft | 500 kts | 267° |
| 2026-05-05 03:33 | 3.16276 | 93.48405 | 41918 ft | 500 kts | 267° |
| 2026-05-05 03:33 | 3.15745 | 93.41464 | 41914 ft | 500 kts | 267° |
| 2026-05-05 03:34 | 3.15214 | 93.34522 | 41903 ft | 500 kts | 267° |
| 2026-05-05 03:34 | 3.14683 | 93.27581 | 41909 ft | 500 kts | 267° |
| 2026-05-05 03:35 | 3.14151 | 93.20639 | 41898 ft | 500 kts | 267° |
| 2026-05-05 03:35 | 3.13618 | 93.13697 | 41905 ft | 500 kts | 267° |
| 2026-05-05 03:36 | 3.13086 | 93.06757 | 41899 ft | 500 kts | 267° |
| 2026-05-05 03:36 | 3.12552 | 92.99813 | 41909 ft | 500 kts | 267° |
| 2026-05-05 03:37 | 3.12019 | 92.92875 | 41909 ft | 500 kts | 267° |
| 2026-05-05 03:37 | 3.11484 | 92.85933 | 41901 ft | 500 kts | 267° |
| 2026-05-05 03:38 | 3.10950 | 92.78992 | 41913 ft | 500 kts | 267° |
| 2026-05-05 03:38 | 3.10414 | 92.72050 | 41907 ft | 500 kts | 266° |
| 2026-05-05 03:39 | 3.09879 | 92.65112 | 41904 ft | 500 kts | 266° |
| 2026-05-05 03:39 | 3.09347 | 92.58219 | 41905 ft | 500 kts | 266° |
| 2026-05-05 03:40 | 3.08810 | 92.51275 | 41905 ft | 500 kts | 266° |
| 2026-05-05 03:40 | 3.08273 | 92.44336 | 41906 ft | 500 kts | 266° |
| 2026-05-05 03:41 | 3.07736 | 92.37401 | 41899 ft | 500 kts | 266° |
| 2026-05-05 03:41 | 3.07199 | 92.30467 | 41901 ft | 500 kts | 266° |
| 2026-05-05 03:42 | 3.06661 | 92.23539 | 41894 ft | 500 kts | 266° |
| 2026-05-05 03:42 | 3.06123 | 92.16609 | 41896 ft | 499 kts | 266° |
| 2026-05-05 03:43 | 3.05585 | 92.09680 | 41895 ft | 499 kts | 266° |
| 2026-05-05 03:43 | 3.05047 | 92.02757 | 41895 ft | 499 kts | 266° |
| 2026-05-05 03:44 | 3.05101 | 91.95834 | 41906 ft | 497 kts | 274° |
| 2026-05-05 03:44 | 3.05507 | 91.88980 | 41903 ft | 497 kts | 275° |
| 2026-05-05 03:45 | 3.05971 | 91.82085 | 41902 ft | 497 kts | 275° |
| 2026-05-05 03:45 | 3.06428 | 91.75194 | 41906 ft | 496 kts | 275° |
| 2026-05-05 03:46 | 3.06874 | 91.68309 | 41898 ft | 496 kts | 275° |
| 2026-05-05 03:46 | 3.07315 | 91.61426 | 41894 ft | 496 kts | 275° |
| 2026-05-05 03:47 | 3.07755 | 91.54547 | 41906 ft | 495 kts | 275° |
| 2026-05-05 03:47 | 3.08195 | 91.47673 | 41901 ft | 495 kts | 275° |
| 2026-05-05 03:48 | 3.08634 | 91.40801 | 41901 ft | 495 kts | 275° |
| 2026-05-05 03:48 | 3.09073 | 91.33936 | 41900 ft | 494 kts | 275° |
| 2026-05-05 03:49 | 3.09511 | 91.27078 | 41904 ft | 494 kts | 275° |
| 2026-05-05 03:49 | 3.09947 | 91.20230 | 41892 ft | 494 kts | 275° |
| 2026-05-05 03:50 | 3.10387 | 91.13338 | 41901 ft | 499 kts | 275° |
| 2026-05-05 03:50 | 3.10830 | 91.06379 | 41888 ft | 503 kts | 275° |
| 2026-05-05 03:51 | 3.11275 | 90.99379 | 41889 ft | 504 kts | 275° |
| 2026-05-05 03:51 | 3.11715 | 90.92431 | 41902 ft | 503 kts | 275° |
| 2026-05-05 03:52 | 3.12159 | 90.85442 | 41902 ft | 504 kts | 275° |
| 2026-05-05 03:52 | 3.12603 | 90.78431 | 41903 ft | 505 kts | 275° |
| 2026-05-05 03:53 | 3.13047 | 90.71420 | 41896 ft | 505 kts | 275° |
| 2026-05-05 03:53 | 3.13490 | 90.64412 | 41891 ft | 505 kts | 275° |
| 2026-05-05 03:54 | 3.13932 | 90.57408 | 41891 ft | 505 kts | 275° |